CheckWX is a tool to help pilots better visualize weather data.  It is not intended as a substitute for an official pre-flight weather briefing.

10:50:36 UTC

ULMM TAF
Murmansk Airport
Murmansk, Russian Federation
TAF ULMM 260756Z 2609/2709 27003G09MPS 9999 BKN013 TEMPO 2609/2616 32003G09MPS 3100 -TSRA BKN011CB TEMPO 2616/2622 05003G09MPS 3100 -SHRA BR BKN011CB TEMPO 2622/2706 22003G09MPS 3100 -SHRA BR BKN011CB TEMPO 2706/2709 32003G09MPS 3100 -SHRA BKN011CB

Jun-26@
09:00 UTC

Jun-26 @ 09:00 UTC

Jun-27@
09:00 UTC

Jun-27 @ 09:00 UTC

TAF ULMM 260756Z 2609/2709 27003G09MPS 9999 BKN013
Wind
  • 270° at 6 KTS
  • {Gusting to 17 KTS
Cloud Levels
  • Broken at 1,300' AGL

Jun-26@
09:00 UTC

Jun-26 @ 09:00 UTC

Jun-26@
16:00 UTC

Jun-26 @ 16:00 UTC

TEMPO 2609/2616 32003G09MPS 3100 -TSRA BKN011CB

Temporary

Temporary Changes expected for less than half the time period

Wind
  • 320° at 6 KTS
  • {Gusting to 17 KTS
Conditions
Light Thunderstorm, Light Rain
Cloud Levels
  • Broken at 1,100' AGL

Jun-26@
16:00 UTC

Jun-26 @ 16:00 UTC

Jun-26@
22:00 UTC

Jun-26 @ 22:00 UTC

TEMPO 2616/2622 05003G09MPS 3100 -SHRA BR BKN011CB

Temporary

Temporary Changes expected for less than half the time period

Wind
  • 050° at 6 KTS
  • {Gusting to 17 KTS
Conditions
Light Rain, Mist
Cloud Levels
  • Broken at 1,100' AGL

Jun-26@
22:00 UTC

Jun-26 @ 22:00 UTC

Jun-27@
06:00 UTC

Jun-27 @ 06:00 UTC

TEMPO 2622/2706 22003G09MPS 3100 -SHRA BR BKN011CB

Temporary

Temporary Changes expected for less than half the time period

Wind
  • 220° at 6 KTS
  • {Gusting to 17 KTS
Conditions
Light Rain, Mist
Cloud Levels
  • Broken at 1,100' AGL

Jun-27@
06:00 UTC

Jun-27 @ 06:00 UTC

Jun-27@
09:00 UTC

Jun-27 @ 09:00 UTC

TEMPO 2706/2709 32003G09MPS 3100 -SHRA BKN011CB

Temporary

Temporary Changes expected for less than half the time period

Wind
  • 320° at 6 KTS
  • {Gusting to 17 KTS
Conditions
Light Rain
Cloud Levels
  • Broken at 1,100' AGL